EDDF METAR and TAF | Updated Today

EDDF METAR

Frankfurt am Main Airport

Observation time: 5 min. ago

EDDF 291150Z VRB03KT CAVOK 16/00 Q1013 NOSIG

Need help? Read our tutorial on how to read METARs or read the parsed version below.

Frankfurt am Main Airport (EDDF) METAR

  • Weather conditions on Sun, 29 May 2022 11:50:00 +0000 (5 min. ago):
  • Present conditions: Dry
  • Clouds: Clear skies
  • Visibility: Greater than 10 km
  • Wind: Variable at 3 knots
  • Temperature: 16 celsius
  • Dew point: 0 celsius
  • Pressure: 1013 millibars
  • Remarks: None


Useful to know...

EDDF TAF

Frankfurt am Main Airport

TAF EDDF 290500Z 2906/3012 34007KT CAVOK PROB30 TEMPO 2912/2919 TSRA BKN025CB BECMG 2920/2923 04005KT
Observation time: 6:55 hr. ago
Need help? Read our tutorial on how to read TAFs or read the parsed version below.

Parsed version of TAF for Frankfurt am Main Airport (EDDF)

  • From 29 May at 06:00 UTC, to day 30 of the month at 12:00 UTC
  • Visibility: Greater than 10 km
  • Wind: 340 degrees at 7
  • Expected to arise temporarily, from 29 May at 12:00 UTC, to day 29 of the month at 19:00 UTC
    Probability of 30%
  • Clouds: Broken sky at 762 meters, cumulonimbus
  • Expected to arise soon, from 29 May at 20:00 UTC, to day 29 of the month at 23:00 UTC
  • Wind: 40 degrees at 5